sensor_id;sensor_type;location;lat;lon;timestamp;temperature;humidity
82991;DHT22;72806;50.832;4.864;2023-12-07T00:02:21;4.40;92.60
82991;DHT22;72806;50.832;4.864;2023-12-07T00:04:48;4.30;92.60
82991;DHT22;72806;50.832;4.864;2023-12-07T00:07:17;4.40;92.70
82991;DHT22;72806;50.832;4.864;2023-12-07T00:09:44;4.40;92.70
82991;DHT22;72806;50.832;4.864;2023-12-07T00:12:11;4.40;92.70
82991;DHT22;72806;50.832;4.864;2023-12-07T00:14:38;4.50;92.80
82991;DHT22;72806;50.832;4.864;2023-12-07T00:17:06;4.50;92.80
82991;DHT22;72806;50.832;4.864;2023-12-07T00:19:33;4.50;92.80
82991;DHT22;72806;50.832;4.864;2023-12-07T00:22:00;4.60;92.80
82991;DHT22;72806;50.832;4.864;2023-12-07T00:24:28;4.50;92.80
82991;DHT22;72806;50.832;4.864;2023-12-07T00:26:56;4.60;92.90
82991;DHT22;72806;50.832;4.864;2023-12-07T00:29:23;4.50;92.80
82991;DHT22;72806;50.832;4.864;2023-12-07T00:31:51;4.60;92.90
82991;DHT22;72806;50.832;4.864;2023-12-07T00:34:18;4.60;92.90
82991;DHT22;72806;50.832;4.864;2023-12-07T00:36:45;4.60;93.20
82991;DHT22;72806;50.832;4.864;2023-12-07T00:39:13;4.60;92.90
82991;DHT22;72806;50.832;4.864;2023-12-07T00:41:41;4.70;92.90
82991;DHT22;72806;50.832;4.864;2023-12-07T00:44:08;4.60;92.80
82991;DHT22;72806;50.832;4.864;2023-12-07T00:46:35;4.60;92.80
82991;DHT22;72806;50.832;4.864;2023-12-07T00:49:02;4.60;92.90
82991;DHT22;72806;50.832;4.864;2023-12-07T00:51:29;4.50;92.90
82991;DHT22;72806;50.832;4.864;2023-12-07T00:53:56;4.50;92.90
82991;DHT22;72806;50.832;4.864;2023-12-07T00:56:24;4.50;92.90
82991;DHT22;72806;50.832;4.864;2023-12-07T00:58:52;4.50;93.00
82991;DHT22;72806;50.832;4.864;2023-12-07T01:01:19;4.60;93.00
82991;DHT22;72806;50.832;4.864;2023-12-07T01:03:46;4.50;93.00
82991;DHT22;72806;50.832;4.864;2023-12-07T01:06:13;4.60;93.10
82991;DHT22;72806;50.832;4.864;2023-12-07T01:08:42;4.60;93.10
82991;DHT22;72806;50.832;4.864;2023-12-07T01:11:09;4.70;93.10
82991;DHT22;72806;50.832;4.864;2023-12-07T01:13:37;4.70;93.40
82991;DHT22;72806;50.832;4.864;2023-12-07T01:16:05;4.70;93.10
82991;DHT22;72806;50.832;4.864;2023-12-07T01:18:34;4.80;93.10
82991;DHT22;72806;50.832;4.864;2023-12-07T01:21:03;4.80;93.10
82991;DHT22;72806;50.832;4.864;2023-12-07T01:23:30;4.80;93.10
82991;DHT22;72806;50.832;4.864;2023-12-07T01:25:58;4.80;93.10
82991;DHT22;72806;50.832;4.864;2023-12-07T01:28:27;4.80;93.10
82991;DHT22;72806;50.832;4.864;2023-12-07T01:30:54;4.80;93.10
82991;DHT22;72806;50.832;4.864;2023-12-07T01:33:23;4.90;93.20
82991;DHT22;72806;50.832;4.864;2023-12-07T01:35:50;4.90;93.20
82991;DHT22;72806;50.832;4.864;2023-12-07T01:38:18;4.90;93.20
82991;DHT22;72806;50.832;4.864;2023-12-07T01:40:45;5.00;93.20
82991;DHT22;72806;50.832;4.864;2023-12-07T01:43:12;5.00;93.20
82991;DHT22;72806;50.832;4.864;2023-12-07T01:45:39;5.00;93.20
82991;DHT22;72806;50.832;4.864;2023-12-07T01:48:06;5.00;93.20
82991;DHT22;72806;50.832;4.864;2023-12-07T01:50:36;5.00;93.20
82991;DHT22;72806;50.832;4.864;2023-12-07T01:53:05;5.00;93.20
82991;DHT22;72806;50.832;4.864;2023-12-07T01:55:32;5.00;93.20
82991;DHT22;72806;50.832;4.864;2023-12-07T01:58:01;5.10;93.20
82991;DHT22;72806;50.832;4.864;2023-12-07T02:00:28;5.10;93.20
82991;DHT22;72806;50.832;4.864;2023-12-07T02:02:55;5.10;93.20
82991;DHT22;72806;50.832;4.864;2023-12-07T02:05:22;5.10;93.20
82991;DHT22;72806;50.832;4.864;2023-12-07T02:07:52;5.10;93.20
82991;DHT22;72806;50.832;4.864;2023-12-07T02:10:19;5.10;93.20
82991;DHT22;72806;50.832;4.864;2023-12-07T02:12:46;5.00;93.20
82991;DHT22;72806;50.832;4.864;2023-12-07T02:15:14;5.00;93.20
82991;DHT22;72806;50.832;4.864;2023-12-07T02:17:47;5.10;93.20
82991;DHT22;72806;50.832;4.864;2023-12-07T02:20:21;5.10;93.20
82991;DHT22;72806;50.832;4.864;2023-12-07T02:22:55;5.10;93.20
82991;DHT22;72806;50.832;4.864;2023-12-07T02:25:29;5.10;93.20
82991;DHT22;72806;50.832;4.864;2023-12-07T02:27:57;5.00;93.10
82991;DHT22;72806;50.832;4.864;2023-12-07T02:30:26;5.00;93.10
82991;DHT22;72806;50.832;4.864;2023-12-07T02:32:54;5.10;93.20
82991;DHT22;72806;50.832;4.864;2023-12-07T02:35:22;5.10;93.20
82991;DHT22;72806;50.832;4.864;2023-12-07T02:37:52;5.20;93.20
82991;DHT22;72806;50.832;4.864;2023-12-07T02:40:25;5.20;93.30
82991;DHT22;72806;50.832;4.864;2023-12-07T02:42:59;5.20;93.20
82991;DHT22;72806;50.832;4.864;2023-12-07T02:45:26;5.30;93.20
82991;DHT22;72806;50.832;4.864;2023-12-07T02:47:53;5.30;93.10
82991;DHT22;72806;50.832;4.864;2023-12-07T02:50:20;5.30;93.10
82991;DHT22;72806;50.832;4.864;2023-12-07T02:52:47;5.30;93.10
82991;DHT22;72806;50.832;4.864;2023-12-07T02:55:15;5.40;93.20
82991;DHT22;72806;50.832;4.864;2023-12-07T02:57:42;5.40;93.40
82991;DHT22;72806;50.832;4.864;2023-12-07T03:00:11;5.40;93.10
82991;DHT22;72806;50.832;4.864;2023-12-07T03:02:40;5.40;93.10
82991;DHT22;72806;50.832;4.864;2023-12-07T03:05:08;5.40;93.00
82991;DHT22;72806;50.832;4.864;2023-12-07T03:07:35;5.40;93.00
82991;DHT22;72806;50.832;4.864;2023-12-07T03:10:03;5.40;93.00
82991;DHT22;72806;50.832;4.864;2023-12-07T03:12:31;5.40;93.00
82991;DHT22;72806;50.832;4.864;2023-12-07T03:14:58;5.40;93.00
82991;DHT22;72806;50.832;4.864;2023-12-07T03:17:27;5.40;93.00
82991;DHT22;72806;50.832;4.864;2023-12-07T03:19:54;5.40;93.00
82991;DHT22;72806;50.832;4.864;2023-12-07T03:22:21;5.40;93.00
82991;DHT22;72806;50.832;4.864;2023-12-07T03:24:51;5.40;93.00
82991;DHT22;72806;50.832;4.864;2023-12-07T03:27:18;5.40;93.00
82991;DHT22;72806;50.832;4.864;2023-12-07T03:29:45;5.50;93.00
82991;DHT22;72806;50.832;4.864;2023-12-07T03:32:12;5.50;92.90
82991;DHT22;72806;50.832;4.864;2023-12-07T03:34:41;5.50;92.90
82991;DHT22;72806;50.832;4.864;2023-12-07T03:37:08;5.50;92.90
82991;DHT22;72806;50.832;4.864;2023-12-07T03:39:35;5.50;92.90
82991;DHT22;72806;50.832;4.864;2023-12-07T03:42:02;5.50;92.80
82991;DHT22;72806;50.832;4.864;2023-12-07T03:44:29;5.50;92.80
82991;DHT22;72806;50.832;4.864;2023-12-07T03:46:56;5.50;92.80
82991;DHT22;72806;50.832;4.864;2023-12-07T03:49:24;5.50;92.80
82991;DHT22;72806;50.832;4.864;2023-12-07T03:51:52;5.50;92.70
82991;DHT22;72806;50.832;4.864;2023-12-07T03:54:19;5.50;92.70
82991;DHT22;72806;50.832;4.864;2023-12-07T03:56:46;5.40;92.60
82991;DHT22;72806;50.832;4.864;2023-12-07T03:59:14;5.50;92.70
82991;DHT22;72806;50.832;4.864;2023-12-07T04:01:41;5.40;92.60
82991;DHT22;72806;50.832;4.864;2023-12-07T04:04:08;5.40;92.60
82991;DHT22;72806;50.832;4.864;2023-12-07T04:06:35;5.40;92.60
82991;DHT22;72806;50.832;4.864;2023-12-07T04:09:04;5.40;92.60
82991;DHT22;72806;50.832;4.864;2023-12-07T04:11:31;5.40;92.60
82991;DHT22;72806;50.832;4.864;2023-12-07T04:13:58;5.40;92.60
82991;DHT22;72806;50.832;4.864;2023-12-07T04:16:25;5.40;92.60
82991;DHT22;72806;50.832;4.864;2023-12-07T04:18:52;5.40;92.60
82991;DHT22;72806;50.832;4.864;2023-12-07T04:21:19;5.40;92.50
82991;DHT22;72806;50.832;4.864;2023-12-07T04:23:47;5.40;92.50
82991;DHT22;72806;50.832;4.864;2023-12-07T04:26:15;5.40;92.60
82991;DHT22;72806;50.832;4.864;2023-12-07T04:28:43;5.40;92.50
82991;DHT22;72806;50.832;4.864;2023-12-07T04:31:10;5.40;92.50
82991;DHT22;72806;50.832;4.864;2023-12-07T04:33:37;5.40;92.50
82991;DHT22;72806;50.832;4.864;2023-12-07T04:36:05;5.40;92.40
82991;DHT22;72806;50.832;4.864;2023-12-07T04:38:33;5.40;92.40
82991;DHT22;72806;50.832;4.864;2023-12-07T04:41:00;5.30;92.40
82991;DHT22;72806;50.832;4.864;2023-12-07T04:43:29;5.30;92.50
82991;DHT22;72806;50.832;4.864;2023-12-07T04:45:56;5.30;92.50
82991;DHT22;72806;50.832;4.864;2023-12-07T04:48:23;5.40;92.50
82991;DHT22;72806;50.832;4.864;2023-12-07T04:50:51;5.40;92.50
82991;DHT22;72806;50.832;4.864;2023-12-07T04:53:18;5.40;92.40
82991;DHT22;72806;50.832;4.864;2023-12-07T04:55:45;5.50;92.30
82991;DHT22;72806;50.832;4.864;2023-12-07T04:58:15;5.40;92.30
82991;DHT22;72806;50.832;4.864;2023-12-07T05:00:44;5.40;92.30
82991;DHT22;72806;50.832;4.864;2023-12-07T05:03:11;5.30;92.30
82991;DHT22;72806;50.832;4.864;2023-12-07T05:05:38;5.40;92.30
82991;DHT22;72806;50.832;4.864;2023-12-07T05:08:05;5.40;92.30
82991;DHT22;72806;50.832;4.864;2023-12-07T05:10:32;5.40;92.30
82991;DHT22;72806;50.832;4.864;2023-12-07T05:13:00;5.40;92.30
82991;DHT22;72806;50.832;4.864;2023-12-07T05:15:27;5.50;92.30
82991;DHT22;72806;50.832;4.864;2023-12-07T05:17:56;5.50;92.30
82991;DHT22;72806;50.832;4.864;2023-12-07T05:20:23;5.50;92.20
82991;DHT22;72806;50.832;4.864;2023-12-07T05:22:52;5.50;92.20
82991;DHT22;72806;50.832;4.864;2023-12-07T05:25:19;5.50;92.10
82991;DHT22;72806;50.832;4.864;2023-12-07T05:27:46;5.40;92.10
82991;DHT22;72806;50.832;4.864;2023-12-07T05:30:14;5.50;92.10
82991;DHT22;72806;50.832;4.864;2023-12-07T05:32:41;5.50;92.10
82991;DHT22;72806;50.832;4.864;2023-12-07T05:35:10;5.40;92.00
82991;DHT22;72806;50.832;4.864;2023-12-07T05:37:37;5.50;92.00
82991;DHT22;72806;50.832;4.864;2023-12-07T05:40:05;5.40;92.00
82991;DHT22;72806;50.832;4.864;2023-12-07T05:42:32;5.40;92.00
82991;DHT22;72806;50.832;4.864;2023-12-07T05:44:59;5.50;92.00
82991;DHT22;72806;50.832;4.864;2023-12-07T05:47:26;5.50;92.00
82991;DHT22;72806;50.832;4.864;2023-12-07T05:49:54;5.50;92.00
82991;DHT22;72806;50.832;4.864;2023-12-07T05:52:24;5.50;91.90
82991;DHT22;72806;50.832;4.864;2023-12-07T05:54:51;5.50;91.90
82991;DHT22;72806;50.832;4.864;2023-12-07T05:57:18;5.50;91.80
82991;DHT22;72806;50.832;4.864;2023-12-07T05:59:45;5.40;91.80
82991;DHT22;72806;50.832;4.864;2023-12-07T06:02:12;5.50;91.90
82991;DHT22;72806;50.832;4.864;2023-12-07T06:04:40;5.50;91.90
82991;DHT22;72806;50.832;4.864;2023-12-07T06:07:07;5.50;91.90
82991;DHT22;72806;50.832;4.864;2023-12-07T06:09:36;5.50;91.80
82991;DHT22;72806;50.832;4.864;2023-12-07T06:12:03;5.50;91.80
82991;DHT22;72806;50.832;4.864;2023-12-07T06:14:31;5.50;91.80
82991;DHT22;72806;50.832;4.864;2023-12-07T06:16:58;5.50;91.80
82991;DHT22;72806;50.832;4.864;2023-12-07T06:19:26;5.40;91.70
82991;DHT22;72806;50.832;4.864;2023-12-07T06:21:54;5.40;91.70
82991;DHT22;72806;50.832;4.864;2023-12-07T06:24:21;5.40;91.70
82991;DHT22;72806;50.832;4.864;2023-12-07T06:26:51;5.30;91.60
82991;DHT22;72806;50.832;4.864;2023-12-07T06:29:18;5.30;91.60
82991;DHT22;72806;50.832;4.864;2023-12-07T06:31:46;5.30;91.60
82991;DHT22;72806;50.832;4.864;2023-12-07T06:34:13;5.30;91.60
82991;DHT22;72806;50.832;4.864;2023-12-07T06:36:40;5.30;91.50
82991;DHT22;72806;50.832;4.864;2023-12-07T06:39:07;5.30;91.50
82991;DHT22;72806;50.832;4.864;2023-12-07T06:41:35;5.30;91.40
82991;DHT22;72806;50.832;4.864;2023-12-07T06:44:03;5.30;91.40
82991;DHT22;72806;50.832;4.864;2023-12-07T06:46:30;5.30;91.30
82991;DHT22;72806;50.832;4.864;2023-12-07T06:48:58;5.20;91.20
82991;DHT22;72806;50.832;4.864;2023-12-07T06:51:25;5.10;91.10
82991;DHT22;72806;50.832;4.864;2023-12-07T06:53:52;5.00;91.10
82991;DHT22;72806;50.832;4.864;2023-12-07T06:56:19;4.90;91.00
82991;DHT22;72806;50.832;4.864;2023-12-07T06:58:46;4.80;91.00
82991;DHT22;72806;50.832;4.864;2023-12-07T07:01:15;4.70;91.00
82991;DHT22;72806;50.832;4.864;2023-12-07T07:03:42;4.70;91.10
82991;DHT22;72806;50.832;4.864;2023-12-07T07:06:09;4.70;91.00
82991;DHT22;72806;50.832;4.864;2023-12-07T07:08:36;4.70;91.00
82991;DHT22;72806;50.832;4.864;2023-12-07T07:11:11;4.70;91.00
82991;DHT22;72806;50.832;4.864;2023-12-07T07:13:39;4.60;90.90
82991;DHT22;72806;50.832;4.864;2023-12-07T07:16:07;4.60;90.90
82991;DHT22;72806;50.832;4.864;2023-12-07T07:18:37;4.60;91.00
82991;DHT22;72806;50.832;4.864;2023-12-07T07:21:05;4.60;91.00
82991;DHT22;72806;50.832;4.864;2023-12-07T07:23:32;4.70;91.00
82991;DHT22;72806;50.832;4.864;2023-12-07T07:26:00;4.70;90.90
82991;DHT22;72806;50.832;4.864;2023-12-07T07:28:27;4.70;90.90
82991;DHT22;72806;50.832;4.864;2023-12-07T07:30:55;4.60;90.90
82991;DHT22;72806;50.832;4.864;2023-12-07T07:33:22;4.60;90.90
82991;DHT22;72806;50.832;4.864;2023-12-07T07:35:50;4.60;90.90
82991;DHT22;72806;50.832;4.864;2023-12-07T07:38:17;4.60;90.90
82991;DHT22;72806;50.832;4.864;2023-12-07T07:40:44;4.60;90.90
82991;DHT22;72806;50.832;4.864;2023-12-07T07:43:13;4.60;90.90
82991;DHT22;72806;50.832;4.864;2023-12-07T07:45:40;4.50;90.90
82991;DHT22;72806;50.832;4.864;2023-12-07T07:48:07;4.50;90.90
82991;DHT22;72806;50.832;4.864;2023-12-07T07:50:35;4.50;90.90
82991;DHT22;72806;50.832;4.864;2023-12-07T07:53:04;4.50;91.00
82991;DHT22;72806;50.832;4.864;2023-12-07T07:55:31;4.50;91.00
82991;DHT22;72806;50.832;4.864;2023-12-07T07:57:58;4.50;91.00
82991;DHT22;72806;50.832;4.864;2023-12-07T08:00:26;4.50;91.00
82991;DHT22;72806;50.832;4.864;2023-12-07T08:02:53;4.50;90.90
82991;DHT22;72806;50.832;4.864;2023-12-07T08:05:21;4.50;90.90
82991;DHT22;72806;50.832;4.864;2023-12-07T08:07:48;4.50;90.90
82991;DHT22;72806;50.832;4.864;2023-12-07T08:10:16;4.50;90.90
82991;DHT22;72806;50.832;4.864;2023-12-07T08:12:43;4.50;90.90
82991;DHT22;72806;50.832;4.864;2023-12-07T08:15:11;4.40;90.80
82991;DHT22;72806;50.832;4.864;2023-12-07T08:17:38;4.40;90.80
82991;DHT22;72806;50.832;4.864;2023-12-07T08:20:07;4.40;90.90
82991;DHT22;72806;50.832;4.864;2023-12-07T08:22:37;4.40;91.10
82991;DHT22;72806;50.832;4.864;2023-12-07T08:25:05;4.40;91.30
82991;DHT22;72806;50.832;4.864;2023-12-07T08:27:34;4.50;91.40
82991;DHT22;72806;50.832;4.864;2023-12-07T08:30:02;4.60;91.40
82991;DHT22;72806;50.832;4.864;2023-12-07T08:32:30;4.60;91.70
82991;DHT22;72806;50.832;4.864;2023-12-07T08:34:57;4.70;92.10
82991;DHT22;72806;50.832;4.864;2023-12-07T08:37:25;4.90;92.50
82991;DHT22;72806;50.832;4.864;2023-12-07T08:39:52;5.10;92.60
82991;DHT22;72806;50.832;4.864;2023-12-07T08:42:19;5.30;92.90
82991;DHT22;72806;50.832;4.864;2023-12-07T08:44:47;5.60;93.10
82991;DHT22;72806;50.832;4.864;2023-12-07T08:47:14;5.80;93.30
82991;DHT22;72806;50.832;4.864;2023-12-07T08:49:41;6.10;93.50
82991;DHT22;72806;50.832;4.864;2023-12-07T08:52:09;6.30;93.60
82991;DHT22;72806;50.832;4.864;2023-12-07T08:54:36;6.50;93.50
82991;DHT22;72806;50.832;4.864;2023-12-07T08:57:03;6.70;93.40
82991;DHT22;72806;50.832;4.864;2023-12-07T08:59:30;6.90;93.20
82991;DHT22;72806;50.832;4.864;2023-12-07T09:01:59;6.90;92.90
82991;DHT22;72806;50.832;4.864;2023-12-07T09:04:27;7.00;92.90
82991;DHT22;72806;50.832;4.864;2023-12-07T09:06:54;7.20;93.00
82991;DHT22;72806;50.832;4.864;2023-12-07T09:09:22;7.30;92.90
82991;DHT22;72806;50.832;4.864;2023-12-07T09:11:51;7.40;92.80
82991;DHT22;72806;50.832;4.864;2023-12-07T09:14:18;7.50;92.50
82991;DHT22;72806;50.832;4.864;2023-12-07T09:16:46;7.50;92.10
82991;DHT22;72806;50.832;4.864;2023-12-07T09:19:15;7.50;91.60
82991;DHT22;72806;50.832;4.864;2023-12-07T09:21:42;7.40;91.10
82991;DHT22;72806;50.832;4.864;2023-12-07T09:24:09;7.30;90.90
82991;DHT22;72806;50.832;4.864;2023-12-07T09:26:36;7.10;90.50
82991;DHT22;72806;50.832;4.864;2023-12-07T09:29:04;6.80;89.80
82991;DHT22;72806;50.832;4.864;2023-12-07T09:31:31;6.80;90.00
82991;DHT22;72806;50.832;4.864;2023-12-07T09:33:58;6.60;90.00
82991;DHT22;72806;50.832;4.864;2023-12-07T09:36:27;6.40;90.00
82991;DHT22;72806;50.832;4.864;2023-12-07T09:38:54;6.30;90.00
82991;DHT22;72806;50.832;4.864;2023-12-07T09:41:21;6.20;90.00
82991;DHT22;72806;50.832;4.864;2023-12-07T09:43:48;6.10;90.10
82991;DHT22;72806;50.832;4.864;2023-12-07T09:46:16;6.00;90.10
82991;DHT22;72806;50.832;4.864;2023-12-07T09:48:43;6.00;90.20
82991;DHT22;72806;50.832;4.864;2023-12-07T09:51:11;6.10;90.30
82991;DHT22;72806;50.832;4.864;2023-12-07T09:53:42;6.10;90.30
82991;DHT22;72806;50.832;4.864;2023-12-07T09:56:10;6.10;90.30
82991;DHT22;72806;50.832;4.864;2023-12-07T09:58:39;6.20;90.40
82991;DHT22;72806;50.832;4.864;2023-12-07T10:01:08;6.30;90.50
82991;DHT22;72806;50.832;4.864;2023-12-07T10:03:36;6.30;90.50
82991;DHT22;72806;50.832;4.864;2023-12-07T10:06:04;6.30;90.50
82991;DHT22;72806;50.832;4.864;2023-12-07T10:08:32;6.40;90.50
82991;DHT22;72806;50.832;4.864;2023-12-07T10:11:05;6.40;90.50
82991;DHT22;72806;50.832;4.864;2023-12-07T10:13:33;6.40;90.40
82991;DHT22;72806;50.832;4.864;2023-12-07T10:16:09;6.50;90.20
82991;DHT22;72806;50.832;4.864;2023-12-07T10:18:37;6.40;90.40
82991;DHT22;72806;50.832;4.864;2023-12-07T10:21:07;6.50;90.40
82991;DHT22;72806;50.832;4.864;2023-12-07T10:23:35;6.50;90.50
82991;DHT22;72806;50.832;4.864;2023-12-07T10:26:05;6.50;90.50
82991;DHT22;72806;50.832;4.864;2023-12-07T10:28:34;6.50;90.50
82991;DHT22;72806;50.832;4.864;2023-12-07T10:31:03;6.60;90.50
82991;DHT22;72806;50.832;4.864;2023-12-07T10:33:30;6.60;90.30
82991;DHT22;72806;50.832;4.864;2023-12-07T10:35:57;6.60;90.30
82991;DHT22;72806;50.832;4.864;2023-12-07T10:38:25;6.60;90.20
82991;DHT22;72806;50.832;4.864;2023-12-07T10:41:05;6.70;90.30
82991;DHT22;72806;50.832;4.864;2023-12-07T10:43:37;6.70;90.20
82991;DHT22;72806;50.832;4.864;2023-12-07T10:46:05;6.70;90.10
82991;DHT22;72806;50.832;4.864;2023-12-07T10:48:33;6.70;90.10
82991;DHT22;72806;50.832;4.864;2023-12-07T10:51:05;6.70;90.20
82991;DHT22;72806;50.832;4.864;2023-12-07T10:53:37;6.70;90.10
82991;DHT22;72806;50.832;4.864;2023-12-07T10:56:10;6.70;89.90
82991;DHT22;72806;50.832;4.864;2023-12-07T10:58:39;6.70;90.00
82991;DHT22;72806;50.832;4.864;2023-12-07T11:01:07;6.80;90.10
82991;DHT22;72806;50.832;4.864;2023-12-07T11:03:35;6.80;90.10
82991;DHT22;72806;50.832;4.864;2023-12-07T11:06:04;6.90;90.20
82991;DHT22;72806;50.832;4.864;2023-12-07T11:08:36;6.90;90.10
82991;DHT22;72806;50.832;4.864;2023-12-07T11:11:10;7.00;90.00
82991;DHT22;72806;50.832;4.864;2023-12-07T11:13:40;7.00;89.90
82991;DHT22;72806;50.832;4.864;2023-12-07T11:16:12;7.00;89.60
82991;DHT22;72806;50.832;4.864;2023-12-07T11:18:39;7.00;89.50
82991;DHT22;72806;50.832;4.864;2023-12-07T11:21:06;7.00;89.60
82991;DHT22;72806;50.832;4.864;2023-12-07T11:23:34;7.00;89.60
82991;DHT22;72806;50.832;4.864;2023-12-07T11:26:01;7.00;89.70
82991;DHT22;72806;50.832;4.864;2023-12-07T11:28:37;7.10;89.80
82991;DHT22;72806;50.832;4.864;2023-12-07T11:31:06;7.10;89.40
82991;DHT22;72806;50.832;4.864;2023-12-07T11:33:34;7.10;89.20
82991;DHT22;72806;50.832;4.864;2023-12-07T11:36:06;7.10;89.00
82991;DHT22;72806;50.832;4.864;2023-12-07T11:38:33;7.20;89.20
82991;DHT22;72806;50.832;4.864;2023-12-07T11:41:00;7.20;88.80
82991;DHT22;72806;50.832;4.864;2023-12-07T11:43:41;7.20;88.40
82991;DHT22;72806;50.832;4.864;2023-12-07T11:46:12;7.20;88.60
82991;DHT22;72806;50.832;4.864;2023-12-07T11:48:46;7.20;88.40
82991;DHT22;72806;50.832;4.864;2023-12-07T11:51:16;7.30;88.30
82991;DHT22;72806;50.832;4.864;2023-12-07T11:53:43;7.30;88.00
82991;DHT22;72806;50.832;4.864;2023-12-07T11:56:11;7.30;87.90
82991;DHT22;72806;50.832;4.864;2023-12-07T11:58:40;7.30;88.00
82991;DHT22;72806;50.832;4.864;2023-12-07T12:01:08;7.40;87.90
82991;DHT22;72806;50.832;4.864;2023-12-07T12:03:35;7.40;87.70
82991;DHT22;72806;50.832;4.864;2023-12-07T12:06:04;7.40;88.00
82991;DHT22;72806;50.832;4.864;2023-12-07T12:08:33;7.40;87.30
82991;DHT22;72806;50.832;4.864;2023-12-07T12:11:01;7.40;87.30
82991;DHT22;72806;50.832;4.864;2023-12-07T12:13:28;7.50;87.00
82991;DHT22;72806;50.832;4.864;2023-12-07T12:15:57;7.50;87.00
82991;DHT22;72806;50.832;4.864;2023-12-07T12:18:24;7.50;86.50
82991;DHT22;72806;50.832;4.864;2023-12-07T12:20:52;7.50;86.50
82991;DHT22;72806;50.832;4.864;2023-12-07T12:23:20;7.50;86.50
82991;DHT22;72806;50.832;4.864;2023-12-07T12:25:48;7.50;86.50
82991;DHT22;72806;50.832;4.864;2023-12-07T12:28:16;7.60;86.50
82991;DHT22;72806;50.832;4.864;2023-12-07T12:30:45;7.60;86.30
82991;DHT22;72806;50.832;4.864;2023-12-07T12:33:14;7.60;85.80
82991;DHT22;72806;50.832;4.864;2023-12-07T12:35:41;7.60;85.10
82991;DHT22;72806;50.832;4.864;2023-12-07T12:38:12;7.50;84.90
82991;DHT22;72806;50.832;4.864;2023-12-07T12:40:39;7.50;85.10
82991;DHT22;72806;50.832;4.864;2023-12-07T12:43:08;7.50;84.60
82991;DHT22;72806;50.832;4.864;2023-12-07T12:45:36;7.50;84.40
82991;DHT22;72806;50.832;4.864;2023-12-07T12:48:04;7.40;84.00
82991;DHT22;72806;50.832;4.864;2023-12-07T12:50:35;7.50;84.10
82991;DHT22;72806;50.832;4.864;2023-12-07T12:53:04;7.40;83.70
82991;DHT22;72806;50.832;4.864;2023-12-07T12:55:33;7.40;83.40
82991;DHT22;72806;50.832;4.864;2023-12-07T12:58:00;7.40;83.10
82991;DHT22;72806;50.832;4.864;2023-12-07T13:00:29;7.30;82.90
82991;DHT22;72806;50.832;4.864;2023-12-07T13:02:57;7.40;83.00
82991;DHT22;72806;50.832;4.864;2023-12-07T13:05:24;7.30;82.90
82991;DHT22;72806;50.832;4.864;2023-12-07T13:07:53;7.40;82.90
82991;DHT22;72806;50.832;4.864;2023-12-07T13:10:20;7.40;82.70
82991;DHT22;72806;50.832;4.864;2023-12-07T13:12:49;7.40;82.60
82991;DHT22;72806;50.832;4.864;2023-12-07T13:15:16;7.40;82.20
82991;DHT22;72806;50.832;4.864;2023-12-07T13:17:44;7.40;82.20
82991;DHT22;72806;50.832;4.864;2023-12-07T13:20:12;7.40;82.10
82991;DHT22;72806;50.832;4.864;2023-12-07T13:22:40;7.40;81.90
82991;DHT22;72806;50.832;4.864;2023-12-07T13:25:11;7.40;81.70
82991;DHT22;72806;50.832;4.864;2023-12-07T13:27:40;7.40;81.60
82991;DHT22;72806;50.832;4.864;2023-12-07T13:30:09;7.40;81.40
82991;DHT22;72806;50.832;4.864;2023-12-07T13:32:37;7.40;81.30
82991;DHT22;72806;50.832;4.864;2023-12-07T13:35:05;7.40;81.10
82991;DHT22;72806;50.832;4.864;2023-12-07T13:37:33;7.40;81.00
82991;DHT22;72806;50.832;4.864;2023-12-07T13:40:02;7.40;80.80
82991;DHT22;72806;50.832;4.864;2023-12-07T13:42:31;7.40;80.50
82991;DHT22;72806;50.832;4.864;2023-12-07T13:44:59;7.30;80.30
82991;DHT22;72806;50.832;4.864;2023-12-07T13:47:27;7.40;80.60
82991;DHT22;72806;50.832;4.864;2023-12-07T13:49:57;7.40;80.40
82991;DHT22;72806;50.832;4.864;2023-12-07T13:52:25;7.40;79.90
82991;DHT22;72806;50.832;4.864;2023-12-07T13:54:52;7.40;80.20
82991;DHT22;72806;50.832;4.864;2023-12-07T13:57:20;7.40;80.20
82991;DHT22;72806;50.832;4.864;2023-12-07T13:59:48;7.40;80.10
82991;DHT22;72806;50.832;4.864;2023-12-07T14:02:16;7.40;79.60
82991;DHT22;72806;50.832;4.864;2023-12-07T14:04:43;7.40;79.70
82991;DHT22;72806;50.832;4.864;2023-12-07T14:07:11;7.40;79.50
82991;DHT22;72806;50.832;4.864;2023-12-07T14:09:41;7.40;79.40
82991;DHT22;72806;50.832;4.864;2023-12-07T14:12:09;7.40;79.40
82991;DHT22;72806;50.832;4.864;2023-12-07T14:14:38;7.40;79.30
82991;DHT22;72806;50.832;4.864;2023-12-07T14:17:07;7.40;79.30
82991;DHT22;72806;50.832;4.864;2023-12-07T14:19:34;7.40;79.10
82991;DHT22;72806;50.832;4.864;2023-12-07T14:22:02;7.40;78.80
82991;DHT22;72806;50.832;4.864;2023-12-07T14:24:29;7.40;78.90
82991;DHT22;72806;50.832;4.864;2023-12-07T14:26:58;7.30;78.70
82991;DHT22;72806;50.832;4.864;2023-12-07T14:29:25;7.30;78.60
82991;DHT22;72806;50.832;4.864;2023-12-07T14:31:53;7.20;78.40
82991;DHT22;72806;50.832;4.864;2023-12-07T14:34:21;7.20;78.10
82991;DHT22;72806;50.832;4.864;2023-12-07T14:36:48;7.20;78.30
82991;DHT22;72806;50.832;4.864;2023-12-07T14:39:16;7.20;78.10
82991;DHT22;72806;50.832;4.864;2023-12-07T14:41:47;7.10;77.90
82991;DHT22;72806;50.832;4.864;2023-12-07T14:44:15;7.10;78.00
82991;DHT22;72806;50.832;4.864;2023-12-07T14:46:43;7.00;78.00
82991;DHT22;72806;50.832;4.864;2023-12-07T14:49:12;7.00;77.60
82991;DHT22;72806;50.832;4.864;2023-12-07T14:51:40;6.90;77.60
82991;DHT22;72806;50.832;4.864;2023-12-07T14:54:07;6.90;77.50
82991;DHT22;72806;50.832;4.864;2023-12-07T14:56:35;6.90;77.50
82991;DHT22;72806;50.832;4.864;2023-12-07T14:59:02;6.90;77.30
82991;DHT22;72806;50.832;4.864;2023-12-07T15:01:29;6.90;77.00
82991;DHT22;72806;50.832;4.864;2023-12-07T15:03:57;6.80;77.10
82991;DHT22;72806;50.832;4.864;2023-12-07T15:06:26;6.80;77.00
82991;DHT22;72806;50.832;4.864;2023-12-07T15:08:55;6.70;76.90
82991;DHT22;72806;50.832;4.864;2023-12-07T15:11:23;6.70;76.60
82991;DHT22;72806;50.832;4.864;2023-12-07T15:13:50;6.70;76.70
82991;DHT22;72806;50.832;4.864;2023-12-07T15:16:17;6.50;76.50
82991;DHT22;72806;50.832;4.864;2023-12-07T15:18:45;6.60;76.60
82991;DHT22;72806;50.832;4.864;2023-12-07T15:21:12;6.60;76.50
82991;DHT22;72806;50.832;4.864;2023-12-07T15:23:41;6.60;76.60
82991;DHT22;72806;50.832;4.864;2023-12-07T15:26:10;6.50;76.40
82991;DHT22;72806;50.832;4.864;2023-12-07T15:28:38;6.50;76.40
82991;DHT22;72806;50.832;4.864;2023-12-07T15:31:06;6.50;76.30
82991;DHT22;72806;50.832;4.864;2023-12-07T15:33:33;6.40;76.20
82991;DHT22;72806;50.832;4.864;2023-12-07T15:36:03;6.40;75.90
82991;DHT22;72806;50.832;4.864;2023-12-07T15:38:30;6.40;76.10
82991;DHT22;72806;50.832;4.864;2023-12-07T15:40:58;6.40;76.10
82991;DHT22;72806;50.832;4.864;2023-12-07T15:43:30;6.30;75.90
82991;DHT22;72806;50.832;4.864;2023-12-07T15:45:59;6.30;75.80
82991;DHT22;72806;50.832;4.864;2023-12-07T15:48:26;6.40;75.70
82991;DHT22;72806;50.832;4.864;2023-12-07T15:50:53;6.30;75.50